Time;durP1;ratioP1;P1;durP2;ratioP2;P2;SDS_P1;SDS_P2;PMS_P1;PMS_P2;Temp;Humidity;BMP_temperature;BMP_pressure;BME280_temperature;BME280_humidity;BME280_pressure;Samples;Min_cycle;Max_cycle;Signal;HPM_P1;HPM_P2
2023/03/23 00:02:14;;;;;;;1.50;1.00;;;;;;;17.34;53.14;96143.34;10380425;28;20535;-33
2023/03/23 00:07:20;;;;;;;3.28;1.30;;;;;;;17.32;52.78;96140.81;10387401;28;20038;-36
2023/03/23 00:12:33;;;;;;;3.88;1.48;;;;;;;17.33;52.58;96126.50;10394939;28;20061;-36
2023/03/23 00:17:34;;;;;;;2.78;1.10;;;;;;;17.32;52.78;96130.72;10385382;28;20129;-33
2023/03/23 00:22:37;;;;;;;1.42;1.05;;;;;;;17.32;52.81;96124.81;10386537;28;20037;-32
2023/03/23 00:27:38;;;;;;;1.67;1.20;;;;;;;17.38;57.88;96122.28;10393390;28;20042;-38
2023/03/23 00:32:38;;;;;;;2.87;1.43;;;;;;;17.44;59.93;96129.84;10395460;28;20030;-34
2023/03/23 00:37:39;;;;;;;1.65;1.20;;;;;;;17.46;60.02;96125.59;10390593;28;20375;-34
2023/03/23 00:42:39;;;;;;;2.80;1.35;;;;;;;17.41;56.88;96124.81;10376512;28;20045;-36
2023/03/23 00:47:41;;;;;;;1.10;1.00;;;;;;;17.38;54.18;96120.59;10382911;28;20037;-33
2023/03/23 00:52:41;;;;;;;1.48;0.98;;;;;;;17.36;53.59;96107.13;10392703;28;20041;-34
2023/03/23 00:57:44;;;;;;;2.10;1.07;;;;;;;17.34;53.40;96107.94;10390701;28;20106;-34
2023/03/23 01:02:44;;;;;;;1.73;1.17;;;;;;;17.36;53.13;96109.66;10390473;28;20037;-34
2023/03/23 01:07:45;;;;;;;1.92;1.00;;;;;;;17.36;53.20;96091.09;10398645;28;20018;-34
2023/03/23 01:12:46;;;;;;;2.42;1.40;;;;;;;17.31;53.05;96088.56;10387616;28;20033;-35
2023/03/23 01:17:46;;;;;;;3.45;1.65;;;;;;;17.36;52.84;96091.09;10386398;28;20041;-33
2023/03/23 01:22:47;;;;;;;1.27;0.85;;;;;;;17.34;52.57;96087.69;10381056;28;20029;-36
2023/03/23 01:27:47;;;;;;;1.60;1.00;;;;;;;17.34;53.03;96080.94;10387095;28;20018;-35
2023/03/23 01:32:47;;;;;;;2.67;1.37;;;;;;;17.31;52.68;96057.38;10388387;28;20288;-34
2023/03/23 01:37:48;;;;;;;1.67;1.00;;;;;;;17.35;54.75;96053.97;10388084;28;21256;-34
2023/03/23 01:42:49;;;;;;;2.35;1.25;;;;;;;17.42;59.84;96061.50;10385924;28;20088;-34
2023/03/23 01:48:08;;;;;;;5.05;2.25;;;;;;;17.43;60.08;96052.25;10395817;28;20075;-34
2023/03/23 01:53:11;;;;;;;2.17;1.25;;;;;;;17.44;58.22;96041.28;10390791;28;20030;-34
2023/03/23 01:58:11;;;;;;;0.93;0.80;;;;;;;17.32;54.61;96037.09;10397260;28;20037;-34
2023/03/23 02:03:13;;;;;;;1.83;1.13;;;;;;;17.36;53.90;96015.19;10392010;28;20523;-34
2023/03/23 02:08:15;;;;;;;1.20;1.10;;;;;;;17.34;53.32;96016.88;10381328;28;20033;-34
2023/03/23 02:13:17;;;;;;;1.75;1.00;;;;;;;17.33;53.42;96016.00;10383596;28;20104;-34
2023/03/23 02:18:40;;;;;;;1.25;0.90;;;;;;;17.31;53.22;96016.91;10400228;28;20045;-34
2023/03/23 02:23:40;;;;;;;1.63;0.80;;;;;;;17.31;53.06;96021.94;10389155;28;20057;-33
2023/03/23 02:29:02;;;;;;;1.70;0.95;;;;;;;17.31;52.92;96002.53;10403145;28;20048;-34
2023/03/23 02:34:15;;;;;;;1.50;0.73;;;;;;;17.30;52.95;96020.25;10397686;28;20497;-35
2023/03/23 02:39:24;;;;;;;2.88;0.77;;;;;;;17.27;52.66;96005.94;10385235;28;20037;-35
2023/03/23 02:44:29;;;;;;;1.35;1.00;;;;;;;17.28;52.70;96007.63;10386248;28;20482;-36
2023/03/23 02:49:35;;;;;;;1.50;1.20;;;;;;;17.31;57.21;95999.19;10379023;28;20041;-33
2023/03/23 02:54:36;;;;;;;2.72;0.98;;;;;;;17.42;59.99;95982.25;10414500;28;20041;-34
2023/03/23 02:59:38;;;;;;;3.55;1.55;;;;;;;17.44;59.99;95983.06;10402513;28;20026;-34
2023/03/23 03:04:41;;;;;;;2.60;1.63;;;;;;;17.39;56.25;95974.66;10400700;28;20041;-34
2023/03/23 03:09:53;;;;;;;1.17;0.85;;;;;;;17.36;53.81;95969.66;10384814;28;20033;-34
2023/03/23 03:15:08;;;;;;;1.05;0.82;;;;;;;17.34;53.43;95978.91;10385793;28;20045;-33
2023/03/23 03:20:11;;;;;;;1.05;0.70;;;;;;;17.33;53.08;95982.28;10392059;28;20068;-34
2023/03/23 03:25:15;;;;;;;1.05;0.90;;;;;;;17.33;53.12;95972.19;10395252;28;20018;-33
2023/03/23 03:30:20;;;;;;;2.13;0.90;;;;;;;17.30;53.28;95969.66;10397484;28;20037;-36
2023/03/23 03:35:24;;;;;;;1.45;0.93;;;;;;;17.29;53.00;95962.91;10393061;28;20421;-34
2023/03/23 03:40:25;;;;;;;2.30;1.00;;;;;;;17.30;52.97;95969.66;10392604;28;20030;-34
2023/03/23 03:45:25;;;;;;;1.40;0.85;;;;;;;17.31;52.90;95969.66;10388772;28;20048;-34
2023/03/23 03:50:26;;;;;;;2.30;0.80;;;;;;;17.28;52.19;95969.69;10390789;28;20033;-34
2023/03/23 03:55:27;;;;;;;0.75;0.75;;;;;;;17.30;52.71;95974.72;10369638;28;20796;-37
2023/03/23 04:00:28;;;;;;;1.35;1.23;;;;;;;17.34;56.69;95971.31;10384942;28;20057;-35
2023/03/23 04:05:28;;;;;;;3.08;1.00;;;;;;;17.40;59.55;95949.38;10398776;28;20072;-35
2023/03/23 04:10:30;;;;;;;1.83;1.15;;;;;;;17.44;59.45;95955.25;10393166;28;20036;-33
2023/03/23 04:15:31;;;;;;;1.15;0.80;;;;;;;17.39;57.80;95957.81;10393012;28;20696;-33
2023/03/23 04:20:32;;;;;;;1.02;0.60;;;;;;;17.34;54.68;95961.19;10393675;28;20038;-34
2023/03/23 04:25:32;;;;;;;0.80;0.68;;;;;;;17.30;53.77;95959.53;10389271;28;20481;-33
2023/03/23 04:30:33;;;;;;;1.63;1.00;;;;;;;17.23;53.28;95957.91;10394123;28;20405;-34
2023/03/23 04:35:45;;;;;;;1.08;0.88;;;;;;;17.30;53.38;95980.63;10394801;28;20037;-33
2023/03/23 04:41:04;;;;;;;1.38;1.15;;;;;;;17.29;53.24;95988.22;10391416;28;20038;-34
2023/03/23 04:46:21;;;;;;;1.23;1.02;;;;;;;17.29;53.07;96003.38;10383882;28;20045;-34
2023/03/23 04:51:25;;;;;;;1.25;0.80;;;;;;;17.31;52.71;95996.66;10387428;28;20108;-35
2023/03/23 04:56:27;;;;;;;1.23;0.80;;;;;;;17.34;52.87;96005.03;10391624;28;20041;-34
2023/03/23 05:01:29;;;;;;;2.15;0.70;;;;;;;17.36;52.29;96000.84;10388475;28;20033;-35
2023/03/23 05:06:45;;;;;;;1.95;1.00;;;;;;;17.37;53.61;96006.75;10386816;28;20073;-33
2023/03/23 05:11:52;;;;;;;1.13;0.80;;;;;;;17.36;54.02;96015.19;10388554;28;20029;-34
2023/03/23 05:16:53;;;;;;;1.38;0.90;;;;;;;17.43;56.06;96024.41;10385545;28;20486;-33
2023/03/23 05:22:02;;;;;;;2.15;1.05;;;;;;;17.43;59.07;96019.34;10392283;28;20033;-34
2023/03/23 05:27:07;;;;;;;3.17;1.20;;;;;;;17.42;57.58;96017.69;10380091;28;20113;-34
2023/03/23 05:32:09;;;;;;;1.88;1.05;;;;;;;17.43;58.66;96011.75;10391759;28;20045;-35
2023/03/23 05:37:13;;;;;;;1.73;1.20;;;;;;;17.46;58.68;96014.25;10371752;28;20030;-34
2023/03/23 05:42:29;;;;;;;1.95;0.90;;;;;;;17.45;57.09;96021.03;10392842;28;20075;-34
2023/03/23 05:47:40;;;;;;;2.58;0.80;;;;;;;17.44;54.89;96034.53;10375847;28;20571;-34
2023/03/23 05:52:44;;;;;;;1.75;0.98;;;;;;;17.39;53.37;96025.28;10387510;28;20041;-34
2023/03/23 05:57:47;;;;;;;3.03;1.77;;;;;;;17.46;54.09;96052.22;10382052;28;20034;-34
2023/03/23 06:03:00;;;;;;;3.63;1.55;;;;;;;17.44;55.09;96057.31;10383719;28;20034;-33
2023/03/23 06:08:12;;;;;;;2.78;1.20;;;;;;;17.48;54.65;96060.66;10376254;28;20034;-34
2023/03/23 06:13:12;;;;;;;4.38;1.70;;;;;;;17.50;56.98;96071.59;10383781;28;20030;-34
2023/03/23 06:18:23;;;;;;;4.55;1.23;;;;;;;17.52;58.00;96082.56;10384127;28;20030;-34
2023/03/23 06:23:42;;;;;;;3.08;1.23;;;;;;;17.52;56.76;96102.81;10389148;28;20200;-35
2023/03/23 06:28:44;;;;;;;6.35;1.98;;;;;;;17.56;60.18;96092.66;10391613;28;20034;-35
2023/03/23 06:33:45;;;;;;;6.88;1.67;;;;;;;17.57;59.63;96085.91;10393155;28;20038;-35
2023/03/23 06:39:14;;;;;;;4.93;1.30;;;;;;;17.57;58.75;96090.97;10389622;28;20041;-34
2023/03/23 06:44:27;;;;;;;7.78;1.52;;;;;;;17.53;59.46;96084.22;10388341;28;20060;-35
2023/03/23 06:49:28;;;;;;;4.47;2.03;;;;;;;17.54;59.19;96081.69;10374823;28;20049;-34
2023/03/23 06:54:50;;;;;;;3.20;1.40;;;;;;;17.50;58.36;96077.50;10384757;28;20042;-36
2023/03/23 06:59:52;;;;;;;6.70;1.60;;;;;;;17.44;58.48;96074.16;10395415;28;20034;-34
2023/03/23 07:04:56;;;;;;;6.43;1.52;;;;;;;17.54;55.47;96093.50;10394034;28;21449;-37
2023/03/23 07:09:58;;;;;;;3.38;1.00;;;;;;;17.53;56.21;96107.00;10392660;28;20056;-34
2023/03/23 07:14:59;;;;;;;6.33;1.60;;;;;;;17.51;59.39;96116.31;10385688;28;20153;-33
2023/03/23 07:19:59;;;;;;;2.50;1.10;;;;;;;17.52;58.63;96107.88;10385338;28;20349;-35
2023/03/23 07:25:01;;;;;;;2.75;1.08;;;;;;;17.51;58.35;96106.19;10385025;28;20021;-33
2023/03/23 07:30:10;;;;;;;3.60;1.50;;;;;;;17.51;58.94;96116.31;10391344;28;20063;-33
2023/03/23 07:35:10;;;;;;;3.50;1.20;;;;;;;17.53;59.60;96120.53;10397602;28;20049;-33
2023/03/23 07:40:22;;;;;;;4.03;1.83;;;;;;;17.62;58.41;96143.25;10391200;28;20064;-34
2023/03/23 07:45:26;;;;;;;1.75;0.70;;;;;;;17.63;55.27;96155.03;10373887;28;20401;-36
2023/03/23 07:50:27;;;;;;;5.70;1.13;;;;;;;17.63;53.86;96151.66;10385151;28;20034;-33
2023/03/23 07:55:30;;;;;;;1.42;0.90;;;;;;;17.63;53.80;96164.31;10380985;28;20571;-33
2023/03/23 08:00:57;;;;;;;2.83;1.25;;;;;;;17.61;53.35;96163.50;10384025;28;20057;-35
2023/03/23 08:05:59;;;;;;;1.35;1.10;;;;;;;17.61;53.30;96166.03;10400476;28;20029;-35
2023/03/23 08:11:18;;;;;;;2.92;0.75;;;;;;;17.61;53.28;96178.69;10392174;28;20073;-35
2023/03/23 08:16:37;;;;;;;1.35;0.90;;;;;;;17.59;53.14;96187.97;10373343;28;20046;-35
2023/03/23 08:21:50;;;;;;;1.05;0.90;;;;;;;17.61;53.21;96193.84;10385070;28;20053;-34
2023/03/23 08:27:00;;;;;;;0.82;0.80;;;;;;;17.60;52.92;96197.25;10396288;28;20049;-35
2023/03/23 08:32:39;;;;;;;1.95;0.95;;;;;;;17.60;53.00;96187.13;10377579;28;20119;-34
2023/03/23 08:38:00;;;;;;;1.55;0.88;;;;;;;17.59;52.67;96190.50;10380271;28;20065;-34
2023/03/23 08:43:21;;;;;;;2.50;0.90;;;;;;;17.60;52.57;96187.13;10391255;28;20041;-34
2023/03/23 08:48:39;;;;;;;4.32;1.20;;;;;;;17.73;57.30;96183.69;10389341;28;20417;-34
2023/03/23 08:53:55;;;;;;;2.80;1.48;;;;;;;17.75;59.54;96194.63;10385405;28;20048;-38
2023/03/23 08:59:21;;;;;;;1.60;0.77;;;;;;;17.69;53.41;96190.47;10366547;28;20041;-34
2023/03/23 09:04:35;;;;;;;1.95;0.75;;;;;;;17.65;53.27;96195.53;10377910;28;20057;-35
2023/03/23 09:09:52;;;;;;;1.40;0.95;;;;;;;17.63;53.10;96197.22;10391343;28;20572;-34
2023/03/23 09:14:53;;;;;;;2.25;0.80;;;;;;;17.63;52.96;96202.28;10387607;28;20042;-34
2023/03/23 09:19:54;;;;;;;2.20;1.10;;;;;;;17.62;52.84;96206.53;10388307;28;20037;-34
2023/03/23 09:24:54;;;;;;;2.28;0.80;;;;;;;17.64;52.71;96221.69;10382570;28;20795;-35
2023/03/23 09:29:55;;;;;;;1.50;1.08;;;;;;;17.63;52.95;96207.34;10384960;28;20055;-35
2023/03/23 09:34:56;;;;;;;2.35;0.98;;;;;;;17.63;53.22;96215.78;10381372;28;20520;-34
2023/03/23 09:39:56;;;;;;;1.02;0.75;;;;;;;17.63;52.65;96198.06;10376660;28;20521;-34
2023/03/23 09:45:38;;;;;;;0.60;0.60;;;;;;;17.63;52.45;96182.03;10381280;28;20025;-34
2023/03/23 09:50:43;;;;;;;1.38;0.93;;;;;;;17.63;52.31;96187.94;10356054;28;20042;-34
2023/03/23 09:55:45;;;;;;;2.75;0.80;;;;;;;17.64;53.88;96194.69;10382352;28;20048;-36
2023/03/23 10:01:00;;;;;;;2.65;0.93;;;;;;;17.76;58.04;96204.75;10379753;28;20113;-34
2023/03/23 10:06:00;;;;;;;1.38;0.93;;;;;;;17.79;53.94;96204.75;10383876;28;20038;-34
2023/03/23 10:11:21;;;;;;;1.70;1.00;;;;;;;17.71;52.69;96193.81;10387094;28;20041;-34
2023/03/23 10:16:26;;;;;;;1.38;0.80;;;;;;;17.70;52.52;96193.81;10389869;28;20057;-34
2023/03/23 10:21:30;;;;;;;1.13;0.70;;;;;;;17.67;52.55;96193.84;10380261;28;20038;-34
2023/03/23 10:26:45;;;;;;;1.63;0.82;;;;;;;17.67;52.64;96187.06;10379929;28;20053;-35
2023/03/23 10:31:58;;;;;;;1.52;1.10;;;;;;;17.68;52.49;96192.97;10377207;28;20041;-34
2023/03/23 10:37:04;;;;;;;1.17;0.70;;;;;;;17.69;52.59;96192.13;10380327;28;20041;-34
2023/03/23 10:42:07;;;;;;;0.90;0.75;;;;;;;17.70;52.80;96183.69;10392153;28;20505;-35
2023/03/23 10:47:08;;;;;;;0.95;0.75;;;;;;;17.68;52.46;96178.63;10395831;28;20037;-34
2023/03/23 10:52:37;;;;;;;1.10;0.80;;;;;;;17.70;52.44;96189.59;10402729;28;20453;-37
2023/03/23 10:57:41;;;;;;;1.40;0.75;;;;;;;17.66;52.30;96164.31;10386593;28;20564;-34
2023/03/23 11:02:47;;;;;;;1.02;0.70;;;;;;;17.69;52.18;96182.88;10387263;28;20034;-35
2023/03/23 11:07:53;;;;;;;1.17;0.70;;;;;;;17.80;57.20;96187.84;10391090;28;20025;-35
2023/03/23 11:12:57;;;;;;;1.23;0.75;;;;;;;17.87;56.63;96186.97;10392210;28;20057;-34
2023/03/23 11:18:01;;;;;;;2.85;0.73;;;;;;;17.79;53.89;96176.88;10396190;28;20068;-34
2023/03/23 11:23:10;;;;;;;1.13;0.80;;;;;;;17.78;52.92;96171.81;10396532;28;20049;-34
2023/03/23 11:28:12;;;;;;;0.93;0.80;;;;;;;17.76;52.92;96173.53;10388562;28;20574;-34
2023/03/23 11:33:17;;;;;;;0.88;0.57;;;;;;;17.70;52.76;96176.09;10384428;28;20124;-36
2023/03/23 11:38:23;;;;;;;2.50;0.70;;;;;;;17.72;52.40;96175.25;10380125;28;20033;-34
2023/03/23 11:43:25;;;;;;;1.63;0.70;;;;;;;17.72;52.37;96171.84;10370857;28;20486;-34
2023/03/23 11:48:29;;;;;;;0.75;0.75;;;;;;;17.72;52.54;96169.31;10389487;28;20022;-35
2023/03/23 11:53:40;;;;;;;1.50;0.80;;;;;;;17.76;52.75;96179.41;10393144;28;20033;-33
2023/03/23 11:58:44;;;;;;;2.00;0.80;;;;;;;17.77;52.77;96176.06;10380268;28;20068;-34
2023/03/23 12:03:59;;;;;;;2.08;0.82;;;;;;;17.80;53.26;96180.25;10385706;28;20045;-34
2023/03/23 12:09:14;;;;;;;2.45;0.90;;;;;;;17.79;52.99;96179.41;10391098;28;20116;-35
2023/03/23 12:14:23;;;;;;;2.67;1.20;;;;;;;17.83;54.88;96165.88;10392974;28;20040;-34
2023/03/23 12:19:42;;;;;;;6.53;1.25;;;;;;;17.95;57.26;96170.03;10394523;28;20109;-34
2023/03/23 12:25:24;;;;;;;3.00;1.13;;;;;;;17.95;55.38;96164.97;10387171;28;20037;-34
2023/03/23 12:30:37;;;;;;;2.60;0.73;;;;;;;17.81;52.69;96146.47;10371780;28;20045;-34
2023/03/23 12:35:40;;;;;;;1.10;0.80;;;;;;;17.80;52.64;96139.72;10386099;28;20044;-36
2023/03/23 12:40:56;;;;;;;3.03;0.98;;;;;;;17.72;52.77;96131.34;10390221;28;20041;-35
2023/03/23 12:46:29;;;;;;;1.77;0.80;;;;;;;17.81;52.65;96142.25;10380979;28;20030;-35
2023/03/23 12:51:51;;;;;;;2.33;1.38;;;;;;;17.81;52.29;96151.53;10381703;28;20034;-34
2023/03/23 12:57:01;;;;;;;2.00;0.93;;;;;;;17.79;52.32;96153.25;10390703;28;20050;-34
2023/03/23 13:02:07;;;;;;;1.10;0.80;;;;;;;17.78;52.40;96151.56;10382767;28;20037;-33
2023/03/23 13:07:13;;;;;;;2.10;0.70;;;;;;;17.77;52.51;96153.28;10379767;28;20032;-34
2023/03/23 13:12:16;;;;;;;3.60;0.77;;;;;;;17.76;52.39;96148.22;10383155;28;20029;-33
2023/03/23 13:17:35;;;;;;;3.25;0.75;;;;;;;17.74;52.33;96144.84;10391884;28;20037;-34
2023/03/23 13:22:42;;;;;;;1.60;0.95;;;;;;;17.74;52.11;96147.41;10378705;28;20065;-34
2023/03/23 13:27:44;;;;;;;9.45;1.10;;;;;;;17.89;54.92;96139.66;10372855;28;20025;-35
2023/03/23 13:32:45;;;;;;;2.40;1.05;;;;;;;17.92;55.35;96135.44;10388243;28;20034;-34
2023/03/23 13:37:48;;;;;;;1.20;0.73;;;;;;;17.86;52.69;96147.31;10383895;28;20030;-35
2023/03/23 13:42:51;;;;;;;0.90;0.50;;;;;;;17.80;52.16;96149.84;10389927;28;20033;-33
2023/03/23 13:48:04;;;;;;;2.03;0.60;;;;;;;17.75;52.23;96149.06;10389988;28;20034;-34
2023/03/23 13:53:15;;;;;;;2.47;0.70;;;;;;;17.69;52.27;96131.38;10379112;28;20416;-34
2023/03/23 13:58:24;;;;;;;0.80;0.52;;;;;;;17.71;51.96;96139.78;10382770;28;20430;-34
2023/03/23 14:03:29;;;;;;;0.73;0.60;;;;;;;17.73;53.16;96128.00;10379533;28;20066;-35
2023/03/23 14:08:30;;;;;;;3.17;0.65;;;;;;;17.70;52.14;96121.25;10389002;28;20029;-34
2023/03/23 14:13:51;;;;;;;4.82;0.55;;;;;;;17.69;51.95;96117.03;10378183;28;20499;-34
2023/03/23 14:18:55;;;;;;;1.25;0.80;;;;;;;17.74;51.67;96109.41;10381492;28;20088;-35
2023/03/23 14:23:56;;;;;;;4.50;0.90;;;;;;;17.74;51.74;96110.25;10398026;28;20045;-34
2023/03/23 14:28:56;;;;;;;1.15;0.80;;;;;;;17.76;51.94;96107.72;10392333;28;20037;-37
2023/03/23 14:34:02;;;;;;;4.90;1.20;;;;;;;17.82;54.99;96102.59;10394073;28;20038;-35
2023/03/23 14:39:25;;;;;;;2.20;0.70;;;;;;;17.97;56.42;96099.94;10375300;28;20453;-34
2023/03/23 14:44:29;;;;;;;1.35;0.63;;;;;;;17.97;54.42;96092.34;10388664;28;20129;-33
2023/03/23 14:49:35;;;;;;;3.40;0.45;;;;;;;17.83;51.92;96084.03;10385327;28;20035;-35
2023/03/23 14:54:37;;;;;;;2.30;0.77;;;;;;;17.79;51.69;96067.16;10384166;28;20124;-34
2023/03/23 14:59:40;;;;;;;1.25;0.50;;;;;;;17.77;51.93;96066.34;10382538;28;20092;-35
2023/03/23 15:04:43;;;;;;;1.55;0.47;;;;;;;17.74;51.59;96069.72;10378925;28;20120;-34
2023/03/23 15:09:46;;;;;;;15.68;2.20;;;;;;;17.66;52.20;96068.94;10386321;28;20041;-33
2023/03/23 15:14:51;;;;;;;1.80;0.77;;;;;;;17.67;51.27;96059.69;10380938;28;20025;-34
2023/03/23 15:19:53;;;;;;;4.70;1.23;;;;;;;17.68;51.07;96072.31;10398946;28;21673;-31
2023/03/23 15:25:09;;;;;;;1.92;0.50;;;;;;;17.70;51.16;96063.03;10377519;28;20078;-34
2023/03/23 15:30:27;;;;;;;4.00;0.90;;;;;;;17.70;51.47;96052.06;10380066;28;20034;-33
2023/03/23 15:35:34;;;;;;;5.03;1.02;;;;;;;17.71;51.38;96064.69;10385779;28;20037;-34
2023/03/23 15:40:38;;;;;;;1.65;0.70;;;;;;;17.68;51.19;96056.28;10395395;28;20090;-35
2023/03/23 15:45:39;;;;;;;1.42;0.80;;;;;;;17.87;55.40;96055.28;10400494;28;20068;-35
2023/03/23 15:50:41;;;;;;;3.22;1.17;;;;;;;17.97;55.86;96057.75;10386134;28;20060;-34
2023/03/23 15:55:41;;;;;;;7.75;1.13;;;;;;;17.86;53.51;96040.94;10392970;28;20041;-34
2023/03/23 16:00:44;;;;;;;0.87;0.70;;;;;;;17.79;51.84;96059.56;10379879;28;20414;-37
2023/03/23 16:05:45;;;;;;;2.08;0.73;;;;;;;17.72;51.38;96050.34;10389489;28;20498;-35
2023/03/23 16:10:49;;;;;;;1.58;0.80;;;;;;;17.71;51.64;96056.25;10396212;28;20076;-35
2023/03/23 16:15:50;;;;;;;0.80;0.63;;;;;;;17.68;51.57;96048.69;10388035;28;20034;-35
2023/03/23 16:20:50;;;;;;;2.05;0.70;;;;;;;17.67;51.57;96057.97;10396706;28;20049;-36
2023/03/23 16:25:51;;;;;;;1.70;0.70;;;;;;;17.66;51.34;96058.81;10393296;28;20438;-34
2023/03/23 16:30:52;;;;;;;1.02;0.60;;;;;;;17.67;51.33;96067.28;10389978;28;20358;-35
2023/03/23 16:35:52;;;;;;;2.45;0.68;;;;;;;17.65;51.21;96061.38;10385910;28;20110;-35
2023/03/23 16:40:52;;;;;;;0.82;0.60;;;;;;;17.66;51.60;96073.19;10393317;28;20492;-36
2023/03/23 16:45:55;;;;;;;0.60;0.50;;;;;;;17.66;51.26;96060.53;10391637;28;20037;-35
2023/03/23 16:50:56;;;;;;;1.02;0.43;;;;;;;17.60;51.13;96051.31;10387292;28;20041;-34
2023/03/23 16:55:57;;;;;;;5.18;1.02;;;;;;;17.84;55.26;96065.44;10388388;28;20042;-34
2023/03/23 17:00:59;;;;;;;1.75;0.60;;;;;;;17.95;55.16;96061.13;10394932;28;20460;-34
2023/03/23 17:06:03;;;;;;;4.60;0.43;;;;;;;17.88;53.03;96062.03;10387177;28;20029;-35
2023/03/23 17:11:03;;;;;;;2.53;1.45;;;;;;;17.76;51.71;96054.53;10381034;28;20045;-34
2023/03/23 17:16:05;;;;;;;2.17;0.82;;;;;;;17.72;51.50;96060.47;10394821;28;20409;-34
2023/03/23 17:21:05;;;;;;;0.68;0.50;;;;;;;17.71;51.35;96054.56;10395830;28;20037;-35
2023/03/23 17:26:06;;;;;;;1.20;0.40;;;;;;;17.70;51.23;96047.84;10388768;28;20037;-34
2023/03/23 17:31:06;;;;;;;2.95;0.50;;;;;;;17.66;51.25;96036.03;10395173;28;20037;-34
2023/03/23 17:36:07;;;;;;;0.50;0.50;;;;;;;17.70;50.97;96047.84;10383718;28;20069;-34
2023/03/23 17:41:10;;;;;;;2.25;0.85;;;;;;;17.70;51.47;96046.97;10390779;28;20111;-35
2023/03/23 17:46:10;;;;;;;2.63;0.52;;;;;;;17.66;51.15;96047.88;10383408;28;20236;-34
2023/03/23 17:51:10;;;;;;;1.70;0.67;;;;;;;17.70;51.46;96054.59;10390530;28;20037;-34
2023/03/23 17:56:11;;;;;;;1.73;0.80;;;;;;;17.71;51.32;96058.78;10327286;28;20700;-34
2023/03/23 18:01:11;;;;;;;5.13;0.50;;;;;;;17.72;51.26;96065.53;10389412;28;20374;-34
2023/03/23 18:06:12;;;;;;;3.77;0.70;;;;;;;17.89;54.20;96063.69;10379754;28;20037;-35
2023/03/23 18:11:13;;;;;;;2.22;0.80;;;;;;;18.01;55.31;96058.56;10385757;28;20292;-36
2023/03/23 18:16:13;;;;;;;4.38;0.70;;;;;;;17.87;51.54;96056.13;10378243;28;20052;-35
2023/03/23 18:21:13;;;;;;;1.03;0.47;;;;;;;17.83;51.52;96053.66;10381627;28;20051;-35
2023/03/23 18:26:15;;;;;;;2.08;0.70;;;;;;;17.80;51.13;96041.00;10388060;28;20021;-34
2023/03/23 18:31:16;;;;;;;3.70;0.82;;;;;;;17.78;51.27;96040.16;10382145;28;20048;-34
2023/03/23 18:36:20;;;;;;;2.75;0.70;;;;;;;17.76;51.04;96041.88;10332748;28;20451;-36
2023/03/23 18:41:20;;;;;;;1.05;0.60;;;;;;;17.75;51.00;96030.09;10348174;28;20042;-34
2023/03/23 18:46:21;;;;;;;2.00;0.70;;;;;;;17.72;51.71;96030.09;10367066;28;20042;-34
2023/03/23 18:51:21;;;;;;;2.22;0.60;;;;;;;17.70;50.75;96031.78;10387434;28;20038;-34
2023/03/23 18:56:22;;;;;;;1.17;0.60;;;;;;;17.74;51.17;96043.59;10381767;28;20490;-33
2023/03/23 19:01:22;;;;;;;0.70;0.60;;;;;;;17.75;51.04;96051.16;10374952;28;20025;-37
2023/03/23 19:06:26;;;;;;;2.78;0.70;;;;;;;17.79;51.01;96047.75;10375843;28;20501;-35
2023/03/23 19:11:27;;;;;;;2.50;0.77;;;;;;;17.83;51.57;96041.00;10386824;28;20126;-34
2023/03/23 19:16:29;;;;;;;10.38;1.90;;;;;;;17.97;58.47;96036.63;10376074;28;20164;-34
2023/03/23 19:21:30;;;;;;;6.53;1.10;;;;;;;18.03;55.64;96031.50;10397376;28;20052;-34
2023/03/23 19:26:33;;;;;;;1.40;0.60;;;;;;;17.86;51.31;96019.00;10391820;28;20044;-33
2023/03/23 19:31:34;;;;;;;2.25;0.65;;;;;;;17.83;51.25;96018.19;10387015;28;20029;-34
2023/03/23 19:36:35;;;;;;;1.13;0.60;;;;;;;17.77;51.09;96014.03;10386161;28;20098;-35
2023/03/23 19:41:36;;;;;;;1.00;0.65;;;;;;;17.74;51.23;96001.38;10391230;28;20068;-34
2023/03/23 19:46:36;;;;;;;1.58;0.60;;;;;;;17.74;50.97;95992.97;10386518;28;20105;-34
2023/03/23 19:51:36;;;;;;;2.60;0.87;;;;;;;17.73;50.99;95991.28;10384166;28;20139;-35
2023/03/23 19:56:37;;;;;;;1.50;0.50;;;;;;;17.71;50.88;95987.91;10389438;28;20128;-34
2023/03/23 20:01:38;;;;;;;1.10;0.70;;;;;;;17.72;51.35;95987.91;10383168;28;20399;-34
2023/03/23 20:06:39;;;;;;;1.17;0.67;;;;;;;17.71;50.93;95980.31;10382469;28;20038;-34
2023/03/23 20:11:40;;;;;;;2.05;0.80;;;;;;;17.69;50.73;95969.38;10385064;28;20084;-33
2023/03/23 20:16:42;;;;;;;1.80;0.80;;;;;;;17.67;51.18;95968.56;10391981;28;20034;-34
2023/03/23 20:21:43;;;;;;;2.78;1.02;;;;;;;17.81;55.45;95969.25;10388587;28;20037;-34
2023/03/23 20:26:44;;;;;;;11.02;1.55;;;;;;;17.93;58.76;95959.00;10385401;28;20592;-35
2023/03/23 20:31:49;;;;;;;1.65;1.00;;;;;;;18.00;55.21;95955.56;10386201;28;20029;-34
2023/03/23 20:36:50;;;;;;;4.50;1.00;;;;;;;17.82;54.86;95950.69;10392941;28;20045;-34
2023/03/23 20:41:53;;;;;;;1.73;0.87;;;;;;;17.72;52.21;95944.00;10386541;28;20501;-35
2023/03/23 20:46:56;;;;;;;3.08;0.70;;;;;;;17.72;51.78;95934.75;10387048;28;20033;-34
2023/03/23 20:51:57;;;;;;;1.15;0.75;;;;;;;17.71;51.64;95937.28;10379708;28;20112;-34
2023/03/23 20:56:57;;;;;;;2.20;1.17;;;;;;;17.68;51.34;95919.59;10384949;28;20034;-34
2023/03/23 21:01:58;;;;;;;1.70;0.68;;;;;;;17.64;51.29;95903.59;10386633;28;20036;-35
2023/03/23 21:06:59;;;;;;;2.95;0.70;;;;;;;17.67;51.63;95903.56;10379112;28;20079;-34
2023/03/23 21:12:04;;;;;;;3.03;1.40;;;;;;;17.65;51.25;95889.28;10388383;28;20397;-33
2023/03/23 21:17:06;;;;;;;1.15;0.77;;;;;;;17.66;51.29;95878.28;10385526;28;20520;-35
2023/03/23 21:22:08;;;;;;;1.30;0.65;;;;;;;17.64;51.22;95885.88;10401556;28;20067;-35
2023/03/23 21:27:08;;;;;;;1.15;0.50;;;;;;;17.65;51.26;95879.16;10390751;28;20040;-34
2023/03/23 21:32:09;;;;;;;3.23;0.90;;;;;;;17.81;57.27;95878.09;10389461;28;20493;-34
2023/03/23 21:37:11;;;;;;;3.10;0.98;;;;;;;17.95;59.05;95867.00;10384727;28;20040;-34
2023/03/23 21:42:14;;;;;;;5.20;0.88;;;;;;;17.86;56.84;95859.50;10383129;28;20502;-33
2023/03/23 21:47:15;;;;;;;1.00;0.73;;;;;;;17.76;53.29;95864.66;10385923;28;20034;-35
2023/03/23 21:52:15;;;;;;;5.67;1.80;;;;;;;17.71;52.21;95853.75;10383675;28;20485;-34
2023/03/23 21:57:15;;;;;;;0.70;0.43;;;;;;;17.67;51.69;95845.34;10391225;28;20030;-35
2023/03/23 22:02:16;;;;;;;3.73;0.77;;;;;;;17.66;51.64;95852.97;10385301;28;20734;-33
2023/03/23 22:07:16;;;;;;;1.77;0.73;;;;;;;17.66;51.45;95852.97;10382064;28;20510;-34
2023/03/23 22:12:17;;;;;;;1.67;0.73;;;;;;;17.63;51.63;95832.75;10389528;28;20042;-34
2023/03/23 22:17:18;;;;;;;1.27;0.73;;;;;;;17.63;51.53;95848.78;10397348;28;20470;-35
2023/03/23 22:22:18;;;;;;;1.02;0.70;;;;;;;17.63;51.66;95837.81;10380596;28;20035;-34
2023/03/23 22:27:19;;;;;;;0.85;0.50;;;;;;;17.60;51.65;95840.38;10393183;28;20468;-34
2023/03/23 22:32:22;;;;;;;2.60;0.73;;;;;;;17.62;51.40;95857.22;10403223;28;20052;-37
2023/03/23 22:37:22;;;;;;;1.40;0.70;;;;;;;17.62;52.14;95861.44;10388083;28;20038;-34
2023/03/23 22:42:22;;;;;;;2.27;0.80;;;;;;;17.81;56.54;95843.50;10396619;28;20021;-34
2023/03/23 22:47:23;;;;;;;4.37;0.90;;;;;;;17.94;59.73;95850.13;10391895;28;20041;-35
2023/03/23 22:52:23;;;;;;;1.37;0.63;;;;;;;17.83;57.67;95859.50;10389324;28;20327;-35
2023/03/23 22:57:24;;;;;;;1.80;0.70;;;;;;;17.70;53.74;95859.66;10396577;28;20030;-39
2023/03/23 23:02:25;;;;;;;0.70;0.57;;;;;;;17.62;52.39;95829.38;10403286;28;20404;-33
2023/03/23 23:07:25;;;;;;;1.13;0.50;;;;;;;17.63;51.83;95852.97;10393774;28;20022;-34
2023/03/23 23:12:28;;;;;;;1.10;0.60;;;;;;;17.62;51.99;95851.31;10397434;28;20034;-34
2023/03/23 23:17:30;;;;;;;2.72;0.50;;;;;;;17.61;51.91;95853.03;10397437;28;20296;-35
2023/03/23 23:22:31;;;;;;;0.50;0.50;;;;;;;17.61;51.52;95844.56;10400405;28;20060;-33
2023/03/23 23:27:32;;;;;;;2.35;1.33;;;;;;;17.59;51.38;95837.00;10394672;28;20036;-34
2023/03/23 23:32:32;;;;;;;0.88;0.63;;;;;;;17.56;51.63;95821.03;10393542;28;20056;-34
2023/03/23 23:37:33;;;;;;;0.80;0.63;;;;;;;17.58;51.26;95825.19;10388082;28;20081;-34